createdAt,value
2019-03-17T00:00:56.789Z,1.43
2019-03-17T00:03:26.148Z,1.43
2019-03-17T00:05:55.436Z,1.40
2019-03-17T00:08:24.759Z,1.30
2019-03-17T00:10:54.313Z,1.33
2019-03-17T00:13:23.572Z,1.27
2019-03-17T00:15:52.903Z,1.33
2019-03-17T00:18:23.507Z,1.50
2019-03-17T00:20:57.252Z,1.20
2019-03-17T00:23:30.155Z,1.80
2019-03-17T00:26:05.305Z,1.40
2019-03-17T00:28:52.041Z,1.40
2019-03-17T00:31:26.375Z,1.37
2019-03-17T00:34:04.423Z,1.40
2019-03-17T00:36:34.438Z,1.60
2019-03-17T00:39:04.579Z,1.43
2019-03-17T00:41:36.431Z,1.63
2019-03-17T00:55:31.601Z,1.60
2019-03-17T00:58:00.916Z,1.37
2019-03-17T01:00:30.524Z,1.27
2019-03-17T01:02:59.807Z,1.20
2019-03-17T01:05:31.630Z,1.03
2019-03-17T01:08:01.082Z,1.07
2019-03-17T01:10:30.349Z,1.30
2019-03-17T01:12:59.559Z,1.50
2019-03-17T01:15:31.978Z,1.50
2019-03-17T01:18:01.267Z,1.30
2019-03-17T01:20:30.970Z,1.50
2019-03-17T01:23:00.191Z,1.43
2019-03-17T01:25:29.540Z,1.47
2019-03-17T01:27:58.811Z,1.50
2019-03-17T01:30:28.345Z,1.53
2019-03-17T01:32:57.584Z,1.30
2019-03-17T01:35:26.971Z,1.37
2019-03-17T01:37:56.215Z,1.40
2019-03-17T01:40:25.488Z,1.07
2019-03-17T01:42:54.704Z,1.40
2019-03-17T01:45:24.112Z,1.17
2019-03-17T01:47:54.168Z,1.30
2019-03-17T01:50:23.770Z,1.03
2019-03-17T01:52:53.383Z,1.23
2019-03-17T01:55:22.722Z,1.47
2019-03-17T01:57:52.327Z,1.30
2019-03-17T02:00:21.695Z,1.27
2019-03-17T02:02:51.127Z,1.37
2019-03-17T02:05:22.409Z,1.10
2019-03-17T02:07:51.550Z,1.17
2019-03-17T02:10:20.838Z,1.00
2019-03-17T02:12:50.241Z,0.97
2019-03-17T02:15:19.580Z,1.00
2019-03-17T02:17:49.103Z,0.90
2019-03-17T02:20:18.380Z,1.10
2019-03-17T02:22:47.598Z,0.90
2019-03-17T02:25:16.861Z,1.10
2019-03-17T02:27:46.074Z,0.93
2019-03-17T02:30:15.381Z,1.10
2019-03-17T02:32:44.603Z,1.00
2019-03-17T02:35:13.891Z,1.20
2019-03-17T02:37:43.132Z,1.00
2019-03-17T02:42:47.548Z,0.70
2019-03-17T02:45:16.952Z,0.90
2019-03-17T02:47:46.571Z,1.30
2019-03-17T02:50:15.815Z,1.27
2019-03-17T02:52:45.141Z,1.17
2019-03-17T02:55:14.720Z,1.00
2019-03-17T02:57:43.959Z,1.00
2019-03-17T03:00:13.327Z,1.00
2019-03-17T03:02:42.530Z,1.10
2019-03-17T03:05:12.202Z,1.13
2019-03-17T03:07:41.435Z,1.23
2019-03-17T03:10:10.673Z,0.97
2019-03-17T03:12:39.874Z,0.90
2019-03-17T03:15:09.348Z,1.20
2019-03-17T03:17:38.660Z,0.70
2019-03-17T03:20:07.953Z,1.00
2019-03-17T03:22:37.198Z,1.00
2019-03-17T03:25:06.641Z,0.97
2019-03-17T03:27:35.938Z,0.80
2019-03-17T03:30:06.486Z,1.03
2019-03-17T03:32:35.708Z,0.90
2019-03-17T03:35:04.972Z,0.80
2019-03-17T03:37:34.335Z,0.77
2019-03-17T03:40:03.694Z,0.70
2019-03-17T03:42:33.007Z,0.90
2019-03-17T03:45:02.402Z,0.80
2019-03-17T03:47:31.651Z,0.83
2019-03-17T03:50:01.031Z,1.00
2019-03-17T03:52:30.353Z,0.80
2019-03-17T03:54:59.636Z,0.73
2019-03-17T03:57:28.970Z,0.80
2019-03-17T03:59:58.217Z,0.90
2019-03-17T04:02:27.549Z,0.90
2019-03-17T04:04:56.772Z,0.70
2019-03-17T04:07:26.040Z,0.80
2019-03-17T04:09:56.189Z,0.60
2019-03-17T04:12:26.175Z,0.60
2019-03-17T04:14:55.387Z,0.90
2019-03-17T04:17:24.722Z,0.60
2019-03-17T04:19:53.956Z,0.67
2019-03-17T04:22:23.262Z,0.70
2019-03-17T04:24:52.805Z,0.83
2019-03-17T04:27:22.091Z,0.77
2019-03-17T04:29:51.394Z,1.13
2019-03-17T04:32:20.723Z,0.67
2019-03-17T04:34:50.088Z,0.70
2019-03-17T04:37:19.598Z,0.80
2019-03-17T04:39:49.136Z,0.60
2019-03-17T04:42:18.450Z,0.90
2019-03-17T04:44:48.009Z,0.90
2019-03-17T04:47:17.275Z,0.60
2019-03-17T04:49:46.509Z,0.70
2019-03-17T04:52:15.746Z,0.70
2019-03-17T04:54:45.083Z,0.90
2019-03-17T04:57:14.627Z,0.53
2019-03-17T04:59:43.854Z,0.50
2019-03-17T05:02:13.759Z,0.53
2019-03-17T05:04:43.083Z,0.57
2019-03-17T05:07:12.647Z,0.80
2019-03-17T05:09:42.337Z,0.60
2019-03-17T05:12:11.651Z,0.53
2019-03-17T05:14:41.438Z,0.80
2019-03-17T05:17:12.139Z,0.70
2019-03-17T05:19:41.556Z,0.60
2019-03-17T05:22:10.875Z,0.70
2019-03-17T05:24:41.461Z,0.80
2019-03-17T05:27:10.742Z,0.53
2019-03-17T05:29:40.339Z,0.70
2019-03-17T05:32:09.884Z,0.60
2019-03-17T05:34:39.153Z,0.60
2019-03-17T05:37:08.443Z,0.60
2019-03-17T05:39:37.764Z,0.50
2019-03-17T05:42:07.005Z,0.40
2019-03-17T05:44:36.463Z,0.60
2019-03-17T05:47:05.895Z,0.60
2019-03-17T05:49:35.641Z,0.53
2019-03-17T05:52:04.860Z,0.57
2019-03-17T05:54:34.231Z,0.67
2019-03-17T05:57:03.739Z,0.43
2019-03-17T05:59:33.718Z,0.70
2019-03-17T06:02:03.088Z,1.17
2019-03-17T06:04:32.499Z,0.60
2019-03-17T06:07:01.893Z,0.47
2019-03-17T06:09:31.222Z,0.60
2019-03-17T06:12:00.806Z,0.50
2019-03-17T06:14:30.193Z,0.40
2019-03-17T06:16:59.871Z,0.50
2019-03-17T06:19:29.316Z,0.50
2019-03-17T06:22:00.630Z,0.40
2019-03-17T06:24:30.118Z,0.50
2019-03-17T06:26:59.978Z,0.43
2019-03-17T06:29:29.368Z,0.57
2019-03-17T06:31:58.744Z,0.40
2019-03-17T06:34:28.058Z,0.50
2019-03-17T06:36:57.632Z,0.50
2019-03-17T06:39:26.919Z,0.47
2019-03-17T06:41:56.168Z,0.30
2019-03-17T06:44:25.384Z,0.67
2019-03-17T06:46:56.246Z,0.50
2019-03-17T06:49:25.597Z,0.57
2019-03-17T06:51:55.218Z,0.60
2019-03-17T06:54:24.593Z,0.50
2019-03-17T06:56:54.112Z,0.43
2019-03-17T06:59:23.522Z,0.60
2019-03-17T07:01:52.876Z,0.60
2019-03-17T07:04:22.510Z,0.60
2019-03-17T07:06:51.803Z,0.70
2019-03-17T07:09:21.135Z,0.50
2019-03-17T07:11:50.379Z,0.63
2019-03-17T07:14:20.367Z,0.60
2019-03-17T07:16:49.932Z,0.77
2019-03-17T07:19:19.215Z,0.80
2019-03-17T07:21:50.951Z,0.80
2019-03-17T07:24:20.359Z,0.70
2019-03-17T07:26:49.795Z,0.90
2019-03-17T07:29:19.122Z,0.50
2019-03-17T07:31:48.376Z,0.70
2019-03-17T07:34:17.571Z,0.47
2019-03-17T07:36:46.838Z,0.40
2019-03-17T07:39:16.036Z,0.70
2019-03-17T07:41:45.236Z,0.80
2019-03-17T07:44:14.937Z,0.70
2019-03-17T07:46:44.134Z,0.60
2019-03-17T07:49:13.541Z,0.70
2019-03-17T07:51:43.013Z,0.90
2019-03-17T07:54:12.256Z,0.63
2019-03-17T07:56:41.467Z,0.60
2019-03-17T07:59:10.716Z,0.60
2019-03-17T08:01:39.907Z,0.63
2019-03-17T08:04:09.444Z,0.60
2019-03-17T08:06:38.646Z,0.60
2019-03-17T08:09:08.915Z,0.57
2019-03-17T08:11:38.123Z,0.60
2019-03-17T08:14:07.402Z,0.67
2019-03-17T08:16:36.619Z,0.80
2019-03-17T08:19:05.885Z,1.10
2019-03-17T08:21:35.410Z,0.80
2019-03-17T08:24:04.825Z,0.60
2019-03-17T08:26:34.036Z,0.63
2019-03-17T08:29:03.346Z,0.60
2019-03-17T08:31:32.823Z,0.70
2019-03-17T08:34:02.090Z,0.80
2019-03-17T08:36:31.301Z,0.70
2019-03-17T08:39:00.583Z,0.67
2019-03-17T08:41:29.847Z,0.50
2019-03-17T08:43:59.100Z,0.83
2019-03-17T08:46:28.454Z,0.63
2019-03-17T08:48:57.785Z,0.60
2019-03-17T08:51:27.095Z,0.60
2019-03-17T08:53:56.362Z,0.70
2019-03-17T08:56:25.578Z,0.90
2019-03-17T08:58:54.848Z,0.83
2019-03-17T09:01:24.064Z,0.70
2019-03-17T09:03:53.457Z,0.70
2019-03-17T09:06:22.665Z,0.60
2019-03-17T09:08:52.230Z,0.70
2019-03-17T09:11:21.737Z,1.00
2019-03-17T09:13:50.934Z,0.80
2019-03-17T09:16:20.504Z,0.70
2019-03-17T09:18:49.734Z,0.70
2019-03-17T09:21:19.003Z,0.60
2019-03-17T09:23:48.214Z,0.70
2019-03-17T09:26:17.507Z,0.70
2019-03-17T09:28:46.768Z,0.60
2019-03-17T09:31:15.964Z,0.60
2019-03-17T09:33:45.243Z,0.80
2019-03-17T09:36:14.862Z,0.70
2019-03-17T09:38:47.438Z,0.90
2019-03-17T09:41:15.381Z,0.73
2019-03-17T09:43:44.660Z,1.00
2019-03-17T09:46:13.954Z,0.80
2019-03-17T09:48:43.346Z,0.60
2019-03-17T09:51:14.711Z,1.57
2019-03-17T09:53:43.927Z,0.80
2019-03-17T09:56:13.192Z,0.70
2019-03-17T09:58:45.452Z,0.70
2019-03-17T10:01:13.416Z,0.70
2019-03-17T10:03:44.717Z,1.00
2019-03-17T10:06:14.461Z,0.70
2019-03-17T10:08:46.252Z,0.80
2019-03-17T10:11:15.609Z,1.07
2019-03-17T10:13:44.960Z,0.80
2019-03-17T10:16:14.166Z,0.70
2019-03-17T10:18:43.547Z,0.67
2019-03-17T10:21:12.756Z,0.70
2019-03-17T10:23:42.903Z,0.60
2019-03-17T10:26:12.195Z,0.70
2019-03-17T10:28:41.784Z,0.70
2019-03-17T10:31:11.132Z,0.60
2019-03-17T10:33:41.876Z,0.57
2019-03-17T10:36:11.530Z,0.70
2019-03-17T10:38:42.818Z,0.60
2019-03-17T10:41:12.081Z,1.00
2019-03-17T10:43:41.366Z,0.60
2019-03-17T10:46:10.630Z,0.80
2019-03-17T10:48:42.917Z,0.70
2019-03-17T10:51:12.322Z,0.63
2019-03-17T10:53:41.594Z,0.67
2019-03-17T10:56:10.865Z,0.63
2019-03-17T10:58:40.367Z,0.70
2019-03-17T11:01:10.141Z,0.80
2019-03-17T11:03:39.383Z,0.73
2019-03-17T11:06:40.997Z,0.70
2019-03-17T11:09:10.370Z,0.57
2019-03-17T11:11:39.970Z,0.90
2019-03-17T11:14:09.521Z,0.80
2019-03-17T11:16:41.092Z,0.60
2019-03-17T11:19:10.004Z,0.80
2019-03-17T11:21:39.247Z,0.70
2019-03-17T11:24:08.814Z,0.80
2019-03-17T11:26:38.291Z,0.70
2019-03-17T11:29:08.974Z,0.80
2019-03-17T11:31:38.599Z,0.73
2019-03-17T11:34:08.081Z,1.00
2019-03-17T11:36:37.777Z,0.60
2019-03-17T11:39:07.953Z,0.73
2019-03-17T11:41:37.352Z,0.70
2019-03-17T11:44:06.600Z,1.00
2019-03-17T11:46:35.849Z,0.73
2019-03-17T11:49:05.102Z,0.70
2019-03-17T11:51:34.666Z,0.70
2019-03-17T11:54:04.308Z,0.63
2019-03-17T11:56:33.953Z,1.20
2019-03-17T11:59:03.254Z,0.80
2019-03-17T12:01:32.582Z,1.10
2019-03-17T12:04:01.841Z,1.23
2019-03-17T12:06:31.221Z,1.03
2019-03-17T12:09:00.467Z,1.27
2019-03-17T12:11:29.655Z,1.20
2019-03-17T12:14:00.334Z,1.20
2019-03-17T12:16:31.862Z,1.00
2019-03-17T12:19:01.179Z,0.93
2019-03-17T12:21:30.700Z,1.17
2019-03-17T12:24:02.583Z,1.10
2019-03-17T12:26:31.819Z,1.03
2019-03-17T12:29:01.184Z,1.10
2019-03-17T12:31:30.668Z,1.00
2019-03-17T12:34:02.969Z,1.10
2019-03-17T12:36:34.715Z,1.30
2019-03-17T12:39:06.138Z,0.97
2019-03-17T12:41:38.596Z,1.27
2019-03-17T12:44:07.784Z,1.10
2019-03-17T12:46:38.582Z,1.20
2019-03-17T12:49:07.777Z,1.37
2019-03-17T12:51:38.815Z,1.10
2019-03-17T12:54:09.417Z,1.20
2019-03-17T12:56:38.769Z,1.20
2019-03-17T12:59:13.430Z,1.40
2019-03-17T13:01:42.800Z,1.00
2019-03-17T13:04:11.977Z,1.10
2019-03-17T13:06:43.398Z,1.00
2019-03-17T13:09:32.149Z,1.10
2019-03-17T13:12:04.232Z,1.30
2019-03-17T13:14:33.499Z,1.10
2019-03-17T13:17:03.160Z,1.30
2019-03-17T13:19:32.612Z,1.30
2019-03-17T13:22:04.856Z,1.10
2019-03-17T13:24:55.839Z,1.23
2019-03-17T13:27:25.349Z,1.03
2019-03-17T13:29:54.925Z,0.93
2019-03-17T13:32:24.176Z,1.10
2019-03-17T13:34:53.683Z,1.10
2019-03-17T13:37:23.005Z,1.10
2019-03-17T13:39:52.189Z,1.40
2019-03-17T13:42:22.976Z,1.30
2019-03-17T13:44:52.239Z,1.00
2019-03-17T13:47:21.914Z,1.30
2019-03-17T13:49:51.188Z,1.67
2019-03-17T13:52:20.438Z,1.10
2019-03-17T13:54:49.647Z,1.30
2019-03-17T13:57:21.203Z,1.20
2019-03-17T13:59:50.612Z,1.33
2019-03-17T14:02:19.868Z,1.20
2019-03-17T14:04:49.087Z,1.23
2019-03-17T14:07:18.620Z,1.40
2019-03-17T14:09:47.818Z,1.33
2019-03-17T14:12:17.345Z,1.50
2019-03-17T14:14:47.044Z,1.27
2019-03-17T14:17:16.280Z,1.40
2019-03-17T14:19:45.495Z,1.23
2019-03-17T14:22:14.748Z,1.87
2019-03-17T14:24:44.013Z,1.30
2019-03-17T14:27:13.595Z,1.33
2019-03-17T14:29:42.923Z,1.80
2019-03-17T14:32:12.469Z,1.13
2019-03-17T14:34:41.773Z,1.60
2019-03-17T14:37:14.080Z,1.27
2019-03-17T14:39:43.792Z,1.30
2019-03-17T14:42:13.171Z,1.57
2019-03-17T14:44:42.501Z,1.40
2019-03-17T14:47:11.696Z,1.60
2019-03-17T14:49:41.172Z,1.60
2019-03-17T14:52:10.428Z,1.50
2019-03-17T14:54:39.895Z,1.30
2019-03-17T14:57:09.457Z,1.50
2019-03-17T14:59:38.963Z,1.63
2019-03-17T15:02:08.213Z,1.60
2019-03-17T15:04:37.399Z,1.60
2019-03-17T15:07:06.648Z,1.53
2019-03-17T15:09:36.124Z,1.60
2019-03-17T15:12:05.368Z,2.30
2019-03-17T15:14:34.855Z,1.50
2019-03-17T15:17:04.120Z,1.70
2019-03-17T15:19:33.314Z,1.50
2019-03-17T15:22:02.797Z,1.60
2019-03-17T15:24:31.996Z,1.73
2019-03-17T15:27:01.285Z,1.50
2019-03-17T15:29:30.573Z,1.63
2019-03-17T15:31:59.862Z,1.70
2019-03-17T15:34:29.090Z,1.60
2019-03-17T15:36:58.615Z,1.57
2019-03-17T15:39:28.090Z,1.60
2019-03-17T15:41:57.348Z,2.10
2019-03-17T15:44:26.852Z,1.40
2019-03-17T15:46:56.692Z,1.60
2019-03-17T15:49:26.169Z,1.53
2019-03-17T15:51:55.410Z,1.63
2019-03-17T15:54:24.603Z,1.50
2019-03-17T15:56:53.829Z,1.57
2019-03-17T15:59:23.187Z,1.90
2019-03-17T16:01:52.379Z,1.90
2019-03-17T16:04:21.641Z,1.60
2019-03-17T16:06:50.824Z,1.60
2019-03-17T16:09:20.065Z,2.03
2019-03-17T16:11:49.535Z,2.00
2019-03-17T16:14:19.216Z,1.80
2019-03-17T16:16:48.379Z,1.63
2019-03-17T16:19:17.712Z,2.17
2019-03-17T16:21:46.921Z,2.33
2019-03-17T16:24:16.180Z,2.20
2019-03-17T16:26:45.659Z,1.87
2019-03-17T16:29:14.995Z,2.13
2019-03-17T16:31:49.168Z,2.00
2019-03-17T16:34:20.467Z,1.90
2019-03-17T16:36:49.719Z,1.60
2019-03-17T16:39:21.396Z,2.13
2019-03-17T16:41:50.908Z,1.60
2019-03-17T16:44:20.846Z,1.90
2019-03-17T16:46:50.266Z,1.87
2019-03-17T16:49:21.863Z,2.00
2019-03-17T16:51:53.947Z,1.50
2019-03-17T16:54:23.419Z,1.70
2019-03-17T16:56:53.314Z,1.87
2019-03-17T16:59:23.991Z,1.97
2019-03-17T17:01:57.653Z,1.77
2019-03-17T17:04:26.965Z,1.80
2019-03-17T17:06:56.720Z,1.50
2019-03-17T17:09:29.148Z,1.23
2019-03-17T17:11:58.501Z,0.40
2019-03-17T17:14:27.857Z,0.70
2019-03-17T17:16:58.195Z,0.40
2019-03-17T17:19:27.720Z,0.50
2019-03-17T17:21:59.636Z,0.47
2019-03-17T17:24:29.095Z,0.47
2019-03-17T17:27:23.576Z,0.60
2019-03-17T17:29:53.034Z,0.50
2019-03-17T17:32:22.550Z,0.30
2019-03-17T17:34:51.887Z,0.50
2019-03-17T17:37:21.122Z,0.50
2019-03-17T17:39:50.644Z,0.47
2019-03-17T17:42:19.996Z,0.30
2019-03-17T17:44:49.552Z,0.50
2019-03-17T17:47:18.750Z,0.40
2019-03-17T17:49:51.135Z,0.40
2019-03-17T17:52:20.480Z,0.80
2019-03-17T17:54:49.757Z,0.43
2019-03-17T17:57:18.969Z,0.40
2019-03-17T17:59:48.420Z,0.50
2019-03-17T18:02:19.570Z,0.30
2019-03-17T18:04:49.102Z,0.30
2019-03-17T18:07:18.424Z,0.30
2019-03-17T18:09:47.844Z,0.40
2019-03-17T18:12:21.118Z,0.40
2019-03-17T18:14:48.392Z,0.30
2019-03-17T18:17:17.607Z,0.30
2019-03-17T18:19:46.885Z,0.30
2019-03-17T18:22:16.398Z,0.50
2019-03-17T18:24:45.686Z,0.20
2019-03-17T18:27:14.874Z,0.67
2019-03-17T18:29:44.147Z,0.30
2019-03-17T18:32:14.209Z,0.53
2019-03-17T18:34:43.787Z,0.30
2019-03-17T18:37:13.271Z,0.33
2019-03-17T18:39:42.563Z,0.30
2019-03-17T18:42:11.999Z,0.30
2019-03-17T18:44:41.217Z,0.40
2019-03-17T18:47:10.600Z,0.50
2019-03-17T18:49:39.799Z,0.40
2019-03-17T18:52:09.423Z,0.40
2019-03-17T18:54:38.706Z,0.30
2019-03-17T18:57:07.973Z,0.30
2019-03-17T18:59:37.228Z,0.20
2019-03-17T19:02:07.010Z,0.30
2019-03-17T19:04:36.394Z,0.40
2019-03-17T19:07:08.861Z,0.20
2019-03-17T19:09:38.160Z,0.30
2019-03-17T19:12:08.383Z,0.57
2019-03-17T19:14:37.652Z,0.43
2019-03-17T19:17:09.597Z,0.40
2019-03-17T19:19:39.183Z,0.60
2019-03-17T19:22:08.778Z,0.50
2019-03-17T19:24:38.347Z,0.40
2019-03-17T19:27:07.557Z,0.40
2019-03-17T19:29:36.874Z,0.50
2019-03-17T19:32:06.258Z,0.50
2019-03-17T19:34:35.824Z,0.40
2019-03-17T19:37:05.113Z,0.50
2019-03-17T19:39:35.930Z,0.83
2019-03-17T19:42:16.395Z,0.40
2019-03-17T19:44:48.398Z,0.40
2019-03-17T19:47:17.775Z,0.40
2019-03-17T19:49:47.055Z,0.67
2019-03-17T19:52:16.318Z,0.53
2019-03-17T19:54:45.483Z,0.40
2019-03-17T19:57:14.786Z,0.60
2019-03-17T19:59:43.961Z,0.57
2019-03-17T20:02:13.222Z,0.50
2019-03-17T20:04:42.407Z,0.50
2019-03-17T20:07:11.739Z,0.40
2019-03-17T20:09:40.988Z,0.50
2019-03-17T20:12:10.241Z,0.60
2019-03-17T20:14:41.980Z,1.07
2019-03-17T20:17:10.444Z,0.50
2019-03-17T20:19:39.676Z,0.50
2019-03-17T20:22:08.940Z,0.60
2019-03-17T20:24:38.168Z,0.60
2019-03-17T20:27:07.475Z,0.40
2019-03-17T20:29:37.365Z,0.60
2019-03-17T20:32:06.580Z,0.40
2019-03-17T20:34:37.453Z,0.50
2019-03-17T20:37:08.928Z,0.60
2019-03-17T20:39:40.110Z,0.40
2019-03-17T20:42:09.443Z,0.50
2019-03-17T20:44:38.678Z,0.50
2019-03-17T20:47:08.547Z,0.30
2019-03-17T20:49:39.572Z,0.60
2019-03-17T20:52:08.844Z,0.60
2019-03-17T20:54:38.186Z,0.40
2019-03-17T20:57:07.417Z,0.40
2019-03-17T20:59:36.645Z,0.50
2019-03-17T21:02:05.919Z,0.60
2019-03-17T21:04:35.184Z,0.40
2019-03-17T21:07:04.466Z,0.60
2019-03-17T21:09:36.057Z,0.70
2019-03-17T21:12:05.714Z,0.50
2019-03-17T21:14:35.227Z,0.43
2019-03-17T21:17:06.737Z,0.60
2019-03-17T21:19:37.252Z,0.63
2019-03-17T21:22:06.500Z,0.80
2019-03-17T21:24:36.031Z,0.60
2019-03-17T21:27:05.268Z,0.50
2019-03-17T21:29:34.531Z,0.50
2019-03-17T21:32:03.880Z,0.60
2019-03-17T21:34:33.116Z,0.50
2019-03-17T21:37:02.631Z,0.50
2019-03-17T21:39:31.888Z,0.50
2019-03-17T21:42:01.106Z,0.50
2019-03-17T21:44:30.368Z,0.50
2019-03-17T21:46:59.660Z,0.40
2019-03-17T21:49:39.828Z,0.60
2019-03-17T21:52:50.563Z,0.33
2019-03-17T21:56:28.237Z,0.50
2019-03-17T21:59:36.529Z,0.30
2019-03-17T22:02:12.817Z,0.43
2019-03-17T22:04:38.502Z,0.40
2019-03-17T22:07:09.023Z,0.50
2019-03-17T22:09:45.462Z,0.50
2019-03-17T22:12:21.557Z,0.40
2019-03-17T22:15:12.723Z,0.43
2019-03-17T22:17:42.313Z,0.40
2019-03-17T22:20:11.869Z,0.40
2019-03-17T22:30:00.728Z,0.40
2019-03-17T22:32:30.014Z,0.40
2019-03-17T22:34:59.289Z,0.30
2019-03-17T22:37:28.771Z,0.30
2019-03-17T22:39:58.042Z,0.40
2019-03-17T22:42:27.240Z,0.40
2019-03-17T22:44:56.491Z,0.40
2019-03-17T22:47:25.988Z,0.33
2019-03-17T22:53:16.233Z,0.30
2019-03-17T22:56:10.511Z,0.40
2019-03-17T22:59:20.624Z,0.40
2019-03-17T23:05:48.822Z,0.30
2019-03-17T23:08:43.965Z,0.37
2019-03-17T23:11:31.110Z,0.20
2019-03-17T23:17:47.770Z,0.77
2019-03-17T23:20:33.869Z,0.20
2019-03-17T23:23:24.293Z,0.20
2019-03-17T23:26:14.573Z,0.23
2019-03-17T23:28:46.708Z,0.10
2019-03-17T23:31:20.735Z,0.20
2019-03-17T23:33:52.546Z,0.10
2019-03-17T23:36:26.967Z,0.20
2019-03-17T23:38:56.201Z,0.20
2019-03-17T23:41:25.636Z,0.20
2019-03-17T23:43:54.886Z,0.20
2019-03-17T23:46:24.166Z,0.40
2019-03-17T23:48:53.399Z,0.20
2019-03-17T23:51:22.807Z,0.20
2019-03-17T23:53:52.128Z,0.10
2019-03-17T23:56:21.845Z,0.20
2019-03-17T23:58:51.442Z,0.57
